Time;durP1;ratioP1;P1;durP2;ratioP2;P2;SDS_P1;SDS_P2;PMS_P1;PMS_P2;Temp;Humidity;BMP_temperature;BMP_pressure;BME280_temperature;BME280_humidity;BME280_pressure;Samples;Min_cycle;Max_cycle;Signal;HPM_P1;HPM_P2
2023/01/06 05:30:22;;;;;;;2.53;0.80;;;12.50;85.40;;;;;;5947771;23;20069;-75
2023/01/06 05:32:48;;;;;;;1.65;0.95;;;12.40;85.40;;;;;;4956633;28;20063;-76
2023/01/06 05:35:13;;;;;;;1.85;0.93;;;12.40;85.50;;;;;;4961375;28;20387;-74
2023/01/06 05:37:39;;;;;;;0.95;0.80;;;12.40;85.70;;;;;;4939238;29;20027;-75
2023/01/06 05:40:05;;;;;;;1.15;0.75;;;12.40;85.80;;;;;;4956377;28;20409;-76
2023/01/06 05:42:31;;;;;;;1.50;0.90;;;12.40;85.80;;;;;;4956656;29;20035;-76
2023/01/06 05:44:56;;;;;;;1.92;0.88;;;12.40;85.70;;;;;;4956636;29;20034;-74
2023/01/06 05:47:22;;;;;;;4.03;1.10;;;12.50;85.70;;;;;;4956146;28;20028;-74
2023/01/06 05:49:48;;;;;;;5.50;1.38;;;12.50;85.50;;;;;;4956473;29;20110;-73
2023/01/06 05:52:13;;;;;;;3.10;1.08;;;12.50;85.50;;;;;;4956451;29;20024;-76
2023/01/06 05:54:39;;;;;;;2.75;1.20;;;12.60;85.50;;;;;;4975478;28;20030;-75
2023/01/06 05:57:06;;;;;;;2.90;1.00;;;12.60;85.60;;;;;;4995054;28;20018;-75
2023/01/06 05:59:31;;;;;;;4.07;0.98;;;12.60;85.30;;;;;;4977471;28;20153;-75
2023/01/06 06:01:57;;;;;;;1.48;0.90;;;12.60;85.40;;;;;;4978402;28;20106;-75
2023/01/06 06:04:23;;;;;;;2.28;1.17;;;12.60;85.30;;;;;;4976682;28;20019;-78
2023/01/06 06:06:48;;;;;;;1.05;0.95;;;12.60;85.50;;;;;;4979586;28;20022;-75
2023/01/06 06:09:14;;;;;;;2.88;1.10;;;12.50;85.50;;;;;;4969447;28;20367;-74
2023/01/06 06:11:40;;;;;;;1.52;0.95;;;12.60;85.60;;;;;;4971183;28;20026;-74
2023/01/06 06:14:09;;;;;;;4.65;1.00;;;12.60;85.60;;;;;;4961530;28;20069;-76
2023/01/06 06:16:37;;;;;;;4.35;0.82;;;12.70;85.50;;;;;;4971903;28;20031;-78
2023/01/06 06:19:03;;;;;;;2.53;1.10;;;12.70;85.40;;;;;;4975730;28;20039;-77
2023/01/06 06:21:30;;;;;;;2.67;0.98;;;12.60;85.60;;;;;;4979457;28;20054;-77
2023/01/06 06:23:57;;;;;;;5.72;1.55;;;12.70;85.60;;;;;;4978629;28;20082;-79
2023/01/06 06:26:23;;;;;;;4.22;0.98;;;12.60;85.70;;;;;;4979423;28;20023;-80
2023/01/06 06:28:49;;;;;;;3.00;1.27;;;12.70;85.80;;;;;;4977993;28;20065;-79
2023/01/06 06:31:21;;;;;;;1.52;1.13;;;12.70;85.70;;;;;;4976739;28;20082;-80
2023/01/06 06:33:50;;;;;;;5.60;1.58;;;12.70;85.80;;;;;;4957538;28;20102;-76
2023/01/06 06:36:16;;;;;;;2.35;1.23;;;12.70;85.60;;;;;;4961767;28;20033;-75
2023/01/06 06:38:44;;;;;;;2.55;1.25;;;12.80;85.80;;;;;;4961344;28;20031;-75
2023/01/06 06:41:09;;;;;;;2.67;1.58;;;12.80;85.60;;;;;;4961721;28;20028;-76
2023/01/06 06:43:35;;;;;;;2.90;1.20;;;12.90;85.50;;;;;;4974675;28;20027;-76
2023/01/06 06:46:01;;;;;;;4.57;1.48;;;12.90;85.40;;;;;;4971700;28;20377;-76
2023/01/06 06:48:28;;;;;;;3.78;1.77;;;13.00;85.30;;;;;;4959454;29;20035;-75
2023/01/06 06:50:58;;;;;;;2.78;1.30;;;13.00;85.30;;;;;;4959357;28;20502;-75
2023/01/06 06:53:25;;;;;;;2.17;1.50;;;13.00;85.20;;;;;;4942408;28;20121;-76
2023/01/06 06:55:50;;;;;;;2.72;1.40;;;13.00;85.20;;;;;;4998049;28;20034;-76
2023/01/06 06:58:16;;;;;;;3.67;1.40;;;13.00;85.20;;;;;;4956050;28;20456;-76
2023/01/06 07:00:42;;;;;;;1.98;1.42;;;13.00;85.20;;;;;;4959006;29;20066;-76
2023/01/06 07:03:08;;;;;;;3.00;1.38;;;13.00;85.30;;;;;;4955098;28;20069;-75
2023/01/06 07:05:33;;;;;;;4.25;1.60;;;13.00;85.30;;;;;;4959264;29;20058;-75
2023/01/06 07:07:59;;;;;;;3.13;1.90;;;13.00;85.20;;;;;;4958884;28;20038;-76
2023/01/06 07:10:25;;;;;;;4.03;1.27;;;13.10;85.20;;;;;;4977326;28;20084;-76
2023/01/06 07:12:50;;;;;;;3.42;1.60;;;13.10;85.20;;;;;;4959526;28;20039;-75
2023/01/06 07:15:16;;;;;;;2.45;1.20;;;13.10;85.30;;;;;;4977573;28;20026;-75
2023/01/06 07:17:41;;;;;;;1.92;1.20;;;13.00;85.30;;;;;;4956689;29;20046;-76
2023/01/06 07:20:09;;;;;;;5.22;1.63;;;13.10;85.40;;;;;;4961700;28;20142;-75
2023/01/06 07:22:39;;;;;;;2.63;1.17;;;13.10;85.50;;;;;;4975503;28;20508;-75
2023/01/06 07:25:06;;;;;;;2.33;1.40;;;13.10;85.40;;;;;;4977926;28;20027;-75
2023/01/06 07:27:32;;;;;;;3.20;1.08;;;13.10;85.30;;;;;;4980626;28;20556;-75
2023/01/06 07:29:58;;;;;;;2.67;1.20;;;13.10;85.30;;;;;;4976891;28;20465;-75
2023/01/06 07:32:23;;;;;;;4.53;1.55;;;13.10;85.50;;;;;;4977059;28;20069;-75
2023/01/06 07:34:49;;;;;;;2.50;1.30;;;13.10;85.60;;;;;;4977603;28;20049;-75
2023/01/06 07:37:15;;;;;;;6.32;1.70;;;13.10;85.60;;;;;;4972213;28;20027;-75
2023/01/06 07:39:41;;;;;;;2.15;1.20;;;13.10;85.60;;;;;;4958248;29;20110;-75
2023/01/06 07:42:09;;;;;;;2.85;1.38;;;13.20;85.60;;;;;;4957802;29;20467;-75
2023/01/06 07:44:35;;;;;;;2.20;1.13;;;13.10;85.50;;;;;;4957975;28;20042;-76
2023/01/06 07:47:01;;;;;;;3.45;1.50;;;13.10;85.70;;;;;;4940517;29;20032;-75
2023/01/06 07:49:26;;;;;;;2.28;1.27;;;13.10;85.70;;;;;;4958026;28;20028;-75
2023/01/06 07:51:52;;;;;;;3.45;1.30;;;13.20;85.70;;;;;;4955369;29;20117;-75
2023/01/06 07:54:17;;;;;;;4.03;1.23;;;13.20;85.70;;;;;;4955417;28;20026;-75
2023/01/06 07:56:43;;;;;;;6.07;1.58;;;13.20;85.80;;;;;;4996876;28;20501;-74
2023/01/06 07:59:09;;;;;;;6.03;1.60;;;13.20;86.10;;;;;;4996259;28;20571;-75
2023/01/06 08:01:37;;;;;;;3.55;1.73;;;13.20;86.20;;;;;;4959909;28;20493;-74
2023/01/06 08:04:03;;;;;;;2.35;1.50;;;13.20;86.20;;;;;;4958423;28;20116;-75
2023/01/06 08:06:29;;;;;;;2.88;1.30;;;13.20;86.20;;;;;;4996848;28;20030;-75
2023/01/06 08:08:54;;;;;;;4.63;1.40;;;13.20;86.20;;;;;;4960814;28;20031;-75
2023/01/06 08:11:20;;;;;;;5.60;1.67;;;13.20;86.20;;;;;;4958677;28;20450;-75
2023/01/06 08:13:46;;;;;;;5.45;1.33;;;13.20;86.40;;;;;;4957551;29;20414;-75
2023/01/06 08:16:12;;;;;;;5.40;1.27;;;13.20;86.50;;;;;;4957172;28;20480;-75
2023/01/06 08:18:38;;;;;;;2.13;1.15;;;13.20;86.40;;;;;;4956399;29;20482;-75
2023/01/06 08:21:09;;;;;;;1.40;1.17;;;13.20;86.40;;;;;;4957559;29;20474;-75
2023/01/06 08:23:35;;;;;;;1.38;0.80;;;13.20;86.10;;;;;;4958112;28;20105;-75
2023/01/06 08:26:18;;;;;;;1.20;0.82;;;13.20;86.20;;;;;;4976987;28;20557;-75
2023/01/06 08:28:44;;;;;;;4.00;1.23;;;13.20;86.00;;;;;;4968499;28;20023;-75
2023/01/06 08:31:12;;;;;;;2.15;0.90;;;13.30;85.90;;;;;;4958314;28;20124;-75
2023/01/06 08:33:38;;;;;;;1.50;0.85;;;13.30;85.70;;;;;;4975613;28;20027;-74
2023/01/06 08:36:07;;;;;;;1.15;0.70;;;13.30;85.50;;;;;;4976920;28;20035;-74
2023/01/06 08:38:34;;;;;;;5.70;0.80;;;13.30;85.40;;;;;;4957664;29;20490;-75
2023/01/06 08:41:01;;;;;;;1.75;0.75;;;13.30;85.40;;;;;;4939959;29;20028;-74
2023/01/06 08:43:27;;;;;;;1.77;0.73;;;13.40;85.30;;;;;;4957012;28;20103;-75
2023/01/06 08:45:53;;;;;;;1.98;0.70;;;13.40;85.20;;;;;;4976425;28;20053;-75
2023/01/06 08:48:19;;;;;;;1.67;1.02;;;13.50;85.10;;;;;;4957248;28;20421;-75
2023/01/06 08:50:45;;;;;;;1.45;0.75;;;13.40;85.00;;;;;;4978731;28;20042;-75
2023/01/06 08:53:11;;;;;;;2.95;0.95;;;13.50;85.10;;;;;;4962264;28;20035;-75
2023/01/06 08:55:38;;;;;;;2.08;0.85;;;13.50;85.10;;;;;;4976799;28;20033;-75
2023/01/06 08:58:05;;;;;;;1.20;0.90;;;13.50;84.90;;;;;;4971649;28;20038;-75
2023/01/06 09:00:31;;;;;;;1.88;0.90;;;13.50;85.00;;;;;;4949890;28;20042;-75
2023/01/06 09:02:56;;;;;;;2.45;1.00;;;13.50;84.90;;;;;;4954465;28;20039;-75
2023/01/06 09:05:22;;;;;;;3.50;1.08;;;13.50;84.90;;;;;;4957123;29;20520;-75
2023/01/06 09:07:49;;;;;;;1.50;1.00;;;13.50;85.00;;;;;;4957189;28;20397;-74
2023/01/06 09:10:16;;;;;;;1.63;1.00;;;13.50;84.90;;;;;;4961937;28;20031;-75
2023/01/06 09:12:42;;;;;;;2.10;1.00;;;13.40;84.90;;;;;;4976214;28;20022;-75
2023/01/06 09:15:08;;;;;;;1.13;0.75;;;13.50;84.90;;;;;;4976017;28;20456;-75
2023/01/06 09:17:34;;;;;;;1.75;1.20;;;13.50;84.90;;;;;;4954712;29;20023;-75
2023/01/06 09:19:59;;;;;;;2.45;1.20;;;13.40;84.90;;;;;;4955642;29;20027;-75
2023/01/06 09:22:25;;;;;;;3.35;0.90;;;13.50;85.00;;;;;;4956859;29;20038;-75
2023/01/06 09:24:51;;;;;;;1.58;0.80;;;13.50;85.00;;;;;;4954765;29;20116;-75
2023/01/06 09:27:16;;;;;;;1.52;0.80;;;13.50;85.10;;;;;;4957021;29;20054;-75
2023/01/06 09:29:42;;;;;;;1.30;0.98;;;13.60;85.10;;;;;;4957040;29;20024;-75
2023/01/06 09:32:08;;;;;;;2.38;1.10;;;13.50;85.00;;;;;;4948410;28;20042;-75
2023/01/06 09:34:34;;;;;;;2.75;1.00;;;13.50;85.10;;;;;;4954534;29;20035;-75
2023/01/06 09:37:00;;;;;;;3.72;1.30;;;13.50;85.40;;;;;;4956985;29;20027;-75
2023/01/06 09:39:26;;;;;;;2.47;1.20;;;13.50;85.60;;;;;;4946398;28;20563;-75
2023/01/06 09:42:20;;;;;;;3.20;1.23;;;13.50;85.80;;;;;;4960603;29;20051;-75
2023/01/06 09:45:01;;;;;;;1.90;1.30;;;13.50;85.90;;;;;;4960305;29;20058;-75
2023/01/06 09:47:32;;;;;;;3.95;1.35;;;13.60;86.00;;;;;;4945516;28;20058;-75
2023/01/06 09:50:12;;;;;;;4.82;1.70;;;13.60;85.90;;;;;;4946018;28;20556;-75
2023/01/06 09:53:01;;;;;;;3.13;1.25;;;13.50;86.10;;;;;;4962289;28;20027;-75
2023/01/06 09:55:36;;;;;;;2.30;1.10;;;13.60;86.10;;;;;;4964610;28;20063;-75
2023/01/06 09:58:20;;;;;;;4.78;1.60;;;13.70;85.90;;;;;;4959029;29;20446;-75
2023/01/06 10:00:51;;;;;;;2.10;1.33;;;13.80;85.80;;;;;;4959918;29;20039;-74
2023/01/06 10:03:25;;;;;;;2.58;1.00;;;13.90;85.50;;;;;;4959815;29;20524;-75
2023/01/06 10:06:09;;;;;;;1.73;1.27;;;13.90;85.70;;;;;;4971502;28;20030;-74
2023/01/06 10:08:43;;;;;;;4.25;1.23;;;14.00;85.50;;;;;;4961786;28;20091;-74
2023/01/06 10:11:37;;;;;;;3.20;1.20;;;14.00;85.50;;;;;;4978751;28;20039;-74
2023/01/06 10:14:32;;;;;;;4.68;1.67;;;14.00;85.40;;;;;;4959572;29;20074;-74
2023/01/06 10:17:20;;;;;;;1.85;1.00;;;13.90;85.40;;;;;;4959725;29;20118;-75
2023/01/06 10:20:05;;;;;;;1.55;1.10;;;13.90;85.50;;;;;;4959452;28;20050;-74
2023/01/06 10:22:53;;;;;;;1.60;1.08;;;13.90;85.60;;;;;;4959617;28;20031;-74
2023/01/06 10:25:21;;;;;;;3.33;1.23;;;13.90;85.50;;;;;;4959736;29;20026;-74
2023/01/06 10:27:57;;;;;;;3.80;1.65;;;14.00;85.50;;;;;;4959314;28;20469;-74
2023/01/06 10:30:41;;;;;;;3.15;1.08;;;14.00;85.30;;;;;;4948352;28;20034;-74
2023/01/06 10:33:33;;;;;;;4.53;1.00;;;14.10;85.30;;;;;;4961606;28;20030;-76
2023/01/06 10:35:59;;;;;;;4.30;1.67;;;14.10;85.30;;;;;;4978587;28;20052;-74
2023/01/06 10:38:39;;;;;;;4.53;1.60;;;14.10;85.30;;;;;;4946660;28;20036;-74
2023/01/06 10:41:11;;;;;;;3.58;1.55;;;14.10;85.20;;;;;;4945775;28;20030;-74
2023/01/06 10:43:36;;;;;;;4.28;1.25;;;14.10;85.20;;;;;;4978785;28;20023;-74
2023/01/06 10:46:02;;;;;;;1.88;1.02;;;14.10;84.90;;;;;;4967093;28;20034;-74
2023/01/06 10:48:31;;;;;;;1.65;0.95;;;14.10;85.10;;;;;;4978469;28;20120;-74
2023/01/06 10:50:57;;;;;;;2.15;1.20;;;14.20;85.10;;;;;;4978478;28;20037;-74
2023/01/06 10:53:22;;;;;;;3.20;1.20;;;14.10;85.10;;;;;;4961213;28;20122;-74
2023/01/06 10:56:00;;;;;;;3.05;1.23;;;14.00;85.40;;;;;;4957750;28;20038;-74
2023/01/06 10:58:49;;;;;;;2.28;0.93;;;14.10;85.40;;;;;;4942164;29;20035;-74
2023/01/06 11:01:22;;;;;;;2.25;1.10;;;14.10;85.50;;;;;;4959133;29;20035;-74
2023/01/06 11:04:08;;;;;;;1.13;0.70;;;14.10;85.60;;;;;;4965529;28;20379;-74
2023/01/06 11:06:35;;;;;;;2.53;1.00;;;14.20;85.50;;;;;;4958948;29;20545;-74
2023/01/06 11:09:07;;;;;;;2.97;1.15;;;14.20;85.50;;;;;;4960925;28;20545;-74
2023/01/06 11:11:43;;;;;;;1.80;0.98;;;14.20;85.50;;;;;;4970015;28;20031;-77
2023/01/06 11:14:15;;;;;;;3.67;1.08;;;14.10;85.70;;;;;;4975504;28;20039;-77
2023/01/06 11:16:41;;;;;;;2.13;1.13;;;14.10;85.70;;;;;;4975614;28;20105;-74
2023/01/06 11:19:30;;;;;;;3.03;0.95;;;14.10;85.60;;;;;;4948865;29;20059;-74
2023/01/06 11:21:56;;;;;;;3.50;1.00;;;14.00;85.70;;;;;;4963902;28;20039;-74
2023/01/06 11:24:24;;;;;;;4.10;1.08;;;14.10;85.80;;;;;;4958590;28;20034;-74
2023/01/06 11:26:56;;;;;;;1.77;1.20;;;14.00;85.90;;;;;;4941472;28;20023;-74
2023/01/06 11:29:34;;;;;;;2.17;1.10;;;14.00;86.00;;;;;;4972429;28;20037;-74
2023/01/06 11:32:22;;;;;;;4.57;1.00;;;14.00;85.90;;;;;;4957547;28;20098;-74
2023/01/06 11:34:55;;;;;;;3.25;0.95;;;14.00;85.60;;;;;;4956361;29;20482;-75
2023/01/06 11:37:41;;;;;;;1.98;0.82;;;14.00;85.50;;;;;;4957922;29;20023;-75
2023/01/06 11:40:13;;;;;;;5.78;1.52;;;14.00;85.50;;;;;;4973667;28;20041;-77
2023/01/06 11:42:39;;;;;;;1.20;0.77;;;13.90;85.60;;;;;;4959092;28;20035;-76
2023/01/06 11:45:05;;;;;;;2.22;0.73;;;14.00;85.50;;;;;;4958391;29;20035;-76
2023/01/06 11:47:31;;;;;;;1.88;1.00;;;14.10;85.40;;;;;;4957808;29;20023;-76
2023/01/06 11:49:59;;;;;;;2.35;0.70;;;14.10;85.60;;;;;;4962514;28;20075;-76
2023/01/06 11:52:30;;;;;;;1.92;0.70;;;14.30;85.10;;;;;;4977540;28;20551;-77
2023/01/06 11:54:57;;;;;;;;;;;14.40;85.00;;;;;;4972858;28;20034;-76
2023/01/06 11:58:04;;;;;;;2.67;1.10;;;14.40;84.80;;;;;;4965456;28;20507;-76
2023/01/06 12:00:50;;;;;;;1.38;0.80;;;14.40;84.90;;;;;;4957479;28;20039;-75
2023/01/06 12:03:29;;;;;;;1.35;0.60;;;14.40;84.80;;;;;;4957361;28;20031;-75
2023/01/06 12:05:57;;;;;;;3.08;0.60;;;14.40;84.30;;;;;;4957967;29;20061;-74
2023/01/06 12:08:34;;;;;;;2.65;1.02;;;14.40;84.60;;;;;;4963261;28;20027;-77
2023/01/06 12:11:26;;;;;;;2.65;0.77;;;14.40;84.60;;;;;;4960025;28;20027;-76
2023/01/06 12:13:52;;;;;;;1.77;0.95;;;14.50;84.60;;;;;;4977266;28;20105;-76
2023/01/06 12:16:40;;;;;;;1.75;0.63;;;14.60;84.50;;;;;;4976858;28;20134;-76
2023/01/06 12:19:19;;;;;;;0.80;0.50;;;14.60;84.00;;;;;;4958738;28;20027;-77
2023/01/06 12:21:44;;;;;;;1.23;0.68;;;14.50;84.20;;;;;;4963418;28;20031;-76
2023/01/06 12:24:15;;;;;;;1.45;0.70;;;14.50;84.10;;;;;;4968818;28;20401;-76
2023/01/06 12:26:42;;;;;;;1.42;0.70;;;14.40;84.50;;;;;;4976710;28;20399;-76
2023/01/06 12:29:19;;;;;;;1.27;0.60;;;14.40;84.60;;;;;;4958724;28;20031;-76
2023/01/06 12:31:56;;;;;;;2.53;0.80;;;14.40;84.90;;;;;;4959075;28;20050;-76
2023/01/06 12:34:41;;;;;;;1.13;0.73;;;14.40;84.90;;;;;;4966233;28;20824;-76
2023/01/06 12:37:16;;;;;;;1.60;0.73;;;14.40;84.80;;;;;;4940151;29;20027;-76
2023/01/06 12:40:18;;;;;;;1.50;0.80;;;14.40;84.70;;;;;;4969106;28;20035;-76
2023/01/06 12:43:14;;;;;;;1.55;0.60;;;14.30;84.80;;;;;;4954843;29;20062;-75
2023/01/06 12:45:58;;;;;;;1.13;0.90;;;14.30;84.80;;;;;;4940206;29;20752;-76
2023/01/06 12:48:30;;;;;;;2.58;0.93;;;14.30;85.10;;;;;;4956995;29;20437;-76
2023/01/06 12:51:04;;;;;;;1.98;0.82;;;14.40;84.90;;;;;;4940239;29;20039;-76
2023/01/06 12:53:39;;;;;;;1.10;0.85;;;14.40;84.70;;;;;;4955531;28;20039;-76
2023/01/06 12:56:05;;;;;;;1.80;0.90;;;14.40;84.90;;;;;;4987900;28;20098;-76
2023/01/06 12:59:05;;;;;;;2.88;0.77;;;14.50;84.50;;;;;;4976207;28;20062;-76
2023/01/06 13:01:48;;;;;;;2.90;1.02;;;14.50;84.50;;;;;;4958431;28;20031;-76
2023/01/06 13:04:36;;;;;;;0.80;0.50;;;14.50;84.40;;;;;;4956210;29;20561;-76
2023/01/06 13:07:17;;;;;;;1.55;0.63;;;14.40;84.10;;;;;;4956946;28;20601;-76
2023/01/06 13:09:53;;;;;;;2.00;1.10;;;14.50;84.20;;;;;;4968918;28;20093;-76
2023/01/06 13:12:46;;;;;;;2.17;0.80;;;14.50;84.00;;;;;;4975883;28;20504;-76
2023/01/06 13:15:27;;;;;;;1.30;0.80;;;14.50;83.90;;;;;;4980341;28;20034;-76
2023/01/06 13:18:18;;;;;;;1.77;0.90;;;14.50;83.80;;;;;;4985435;28;20034;-76
2023/01/06 13:20:48;;;;;;;3.15;0.73;;;14.40;84.00;;;;;;4990289;28;20042;-76
2023/01/06 13:23:27;;;;;;;2.55;0.80;;;14.40;83.90;;;;;;4962394;28;20022;-76
2023/01/06 13:26:16;;;;;;;2.55;1.13;;;14.50;83.90;;;;;;4965136;28;20034;-76
2023/01/06 13:29:06;;;;;;;2.50;0.90;;;14.40;83.60;;;;;;4933486;29;20056;-76
2023/01/06 13:31:45;;;;;;;3.25;0.80;;;14.40;83.70;;;;;;4959147;28;20119;-75
2023/01/06 13:34:48;;;;;;;3.58;1.35;;;14.50;83.70;;;;;;4960929;29;20042;-76
2023/01/06 13:37:20;;;;;;;3.83;1.67;;;14.50;83.70;;;;;;4968125;28;20392;-76
2023/01/06 13:39:51;;;;;;;2.78;1.30;;;14.40;83.70;;;;;;4964357;28;20090;-77
2023/01/06 13:42:27;;;;;;;6.00;1.63;;;14.40;83.80;;;;;;4979711;28;20023;-75
2023/01/06 13:44:53;;;;;;;3.97;1.70;;;14.30;83.80;;;;;;4962274;28;20030;-75
2023/01/06 13:47:23;;;;;;;2.10;1.27;;;14.30;84.30;;;;;;4961266;28;20038;-76
2023/01/06 13:49:49;;;;;;;1.50;1.20;;;14.30;84.30;;;;;;4979915;28;20034;-76
2023/01/06 13:52:22;;;;;;;3.05;1.00;;;14.30;84.50;;;;;;4979617;28;20493;-76
2023/01/06 13:54:48;;;;;;;1.67;1.10;;;14.20;84.60;;;;;;4956697;28;20106;-76
2023/01/06 13:57:37;;;;;;;2.20;0.85;;;14.20;84.70;;;;;;4960267;29;20027;-75
2023/01/06 14:00:03;;;;;;;6.20;1.20;;;14.20;84.60;;;;;;4959943;28;20037;-76
2023/01/06 14:02:34;;;;;;;2.55;0.90;;;14.20;84.50;;;;;;4959849;29;20270;-76
2023/01/06 14:05:02;;;;;;;2.60;1.05;;;14.20;84.60;;;;;;4958932;29;20457;-75
2023/01/06 14:07:33;;;;;;;2.40;1.20;;;14.20;84.60;;;;;;4943765;28;20031;-76
2023/01/06 14:09:59;;;;;;;2.97;0.85;;;14.20;84.80;;;;;;4959782;29;20028;-76
2023/01/06 14:12:26;;;;;;;0.80;0.55;;;14.20;84.70;;;;;;4961826;28;20110;-76
2023/01/06 14:15:17;;;;;;;2.22;1.08;;;14.10;85.00;;;;;;4959996;28;20027;-76
2023/01/06 14:17:45;;;;;;;2.50;0.93;;;14.00;85.40;;;;;;4959971;29;20020;-76
2023/01/06 14:20:31;;;;;;;0.93;0.60;;;14.00;85.50;;;;;;4959800;29;20112;-76
2023/01/06 14:23:03;;;;;;;2.55;1.02;;;13.90;85.10;;;;;;4956696;28;20492;-75
2023/01/06 14:25:38;;;;;;;0.70;0.60;;;13.90;85.40;;;;;;4978572;28;20054;-76
2023/01/06 14:28:06;;;;;;;2.47;0.90;;;13.90;85.30;;;;;;4978571;28;20062;-76
2023/01/06 14:30:34;;;;;;;2.80;0.90;;;14.00;85.40;;;;;;4971615;28;20480;-76
2023/01/06 14:33:34;;;;;;;5.05;1.05;;;14.00;85.20;;;;;;4945468;28;20026;-76
2023/01/06 14:36:20;;;;;;;5.15;1.10;;;14.00;85.30;;;;;;4961480;28;20042;-76
2023/01/06 14:38:58;;;;;;;1.23;0.90;;;13.90;85.50;;;;;;4994389;28;20038;-76
2023/01/06 14:41:30;;;;;;;2.35;0.90;;;14.00;85.30;;;;;;4993277;28;20038;-76
2023/01/06 14:44:05;;;;;;;1.65;0.75;;;14.00;85.10;;;;;;4942112;29;20034;-76
2023/01/06 14:46:40;;;;;;;1.83;0.90;;;13.80;85.00;;;;;;4958243;29;20024;-76
2023/01/06 14:49:14;;;;;;;1.23;0.85;;;13.80;85.20;;;;;;4959058;29;20019;-76
2023/01/06 14:51:42;;;;;;;2.28;0.90;;;13.90;85.30;;;;;;4969739;28;20034;-76
2023/01/06 14:54:14;;;;;;;3.25;1.50;;;13.80;85.20;;;;;;4966973;28;20030;-76
2023/01/06 14:56:39;;;;;;;2.75;1.10;;;13.80;85.10;;;;;;4980636;28;20057;-75
2023/01/06 14:59:13;;;;;;;4.05;1.83;;;13.80;85.10;;;;;;4970358;28;20445;-76
2023/01/06 15:01:42;;;;;;;2.22;1.10;;;13.80;85.10;;;;;;4977159;28;20497;-76
2023/01/06 15:04:23;;;;;;;1.30;1.10;;;13.80;85.20;;;;;;4959113;29;20422;-76
2023/01/06 15:06:57;;;;;;;2.83;1.50;;;13.80;85.10;;;;;;4960212;28;20023;-76
2023/01/06 15:09:22;;;;;;;3.00;1.65;;;13.80;85.10;;;;;;4997494;28;20519;-76
2023/01/06 15:11:48;;;;;;;2.75;1.33;;;13.90;85.10;;;;;;4972721;28;20027;-76
2023/01/06 15:14:33;;;;;;;2.40;1.90;;;13.80;84.80;;;;;;4959036;29;20023;-76
2023/01/06 15:17:06;;;;;;;3.67;1.73;;;13.80;85.10;;;;;;4941795;29;20397;-76
2023/01/06 15:19:33;;;;;;;1.98;1.27;;;13.90;85.00;;;;;;4958809;28;20429;-76
2023/01/06 15:22:04;;;;;;;2.67;1.00;;;13.80;84.50;;;;;;4959998;28;20398;-76
2023/01/06 15:24:31;;;;;;;5.57;1.73;;;13.90;84.70;;;;;;4977993;28;20019;-76
2023/01/06 15:27:06;;;;;;;1.55;1.10;;;13.80;84.50;;;;;;4968343;28;20150;-76
2023/01/06 15:29:33;;;;;;;2.78;1.00;;;13.80;84.40;;;;;;4941227;29;20027;-76
2023/01/06 15:32:00;;;;;;;4.25;1.55;;;13.80;84.20;;;;;;4941101;29;20066;-76
2023/01/06 15:34:43;;;;;;;1.60;0.90;;;13.80;84.40;;;;;;4958402;28;20101;-76
2023/01/06 15:37:24;;;;;;;4.18;1.52;;;13.90;84.20;;;;;;4964152;28;20034;-76
2023/01/06 15:39:50;;;;;;;;;;;13.90;84.20;;;;;;4997422;28;20089;-76
2023/01/06 15:42:20;;;;;;;2.75;1.10;;;13.90;84.20;;;;;;4958821;28;19921;-76
2023/01/06 15:45:00;;;;;;;1.92;1.00;;;13.80;84.10;;;;;;4957261;29;20027;-76
2023/01/06 15:47:34;;;;;;;2.03;1.05;;;13.80;84.20;;;;;;4956882;29;20031;-76
2023/01/06 15:50:07;;;;;;;2.35;1.10;;;13.70;84.20;;;;;;4957807;28;20108;-76
2023/01/06 15:52:42;;;;;;;3.88;1.15;;;13.80;84.20;;;;;;4958083;29;20454;-76
2023/01/06 15:55:30;;;;;;;2.47;1.30;;;13.80;84.10;;;;;;4973157;28;20098;-76
2023/01/06 15:58:07;;;;;;;3.05;1.48;;;13.80;84.20;;;;;;5086569;28;20401;-75
2023/01/06 16:00:58;;;;;;;1.83;1.20;;;13.80;84.00;;;;;;5060231;28;20140;-77
2023/01/06 16:03:27;;;;;;;3.35;1.10;;;13.80;83.80;;;;;;5048143;28;20031;-75
2023/01/06 16:06:06;;;;;;;2.45;1.10;;;13.80;84.00;;;;;;5051250;28;20079;-75
2023/01/06 16:08:32;;;;;;;1.77;1.00;;;13.70;84.00;;;;;;5053786;28;20033;-75
2023/01/06 16:11:14;;;;;;;1.92;1.25;;;13.70;84.00;;;;;;5058108;28;20032;-75
2023/01/06 16:13:41;;;;;;;1.63;0.95;;;13.70;84.10;;;;;;5051634;28;20027;-75
2023/01/06 16:16:16;;;;;;;1.25;0.77;;;13.70;84.10;;;;;;5051227;28;20033;-75
2023/01/06 16:18:43;;;;;;;2.22;1.08;;;13.70;83.90;;;;;;5060398;28;20390;-75
2023/01/06 16:21:26;;;;;;;1.33;0.98;;;13.70;84.00;;;;;;5071898;28;20025;-75
2023/01/06 16:24:01;;;;;;;2.55;1.17;;;13.60;84.10;;;;;;5063788;28;20033;-75
2023/01/06 16:26:30;;;;;;;1.23;0.90;;;13.60;84.00;;;;;;5077704;28;20028;-76
2023/01/06 16:29:18;;;;;;;1.27;0.90;;;13.50;84.00;;;;;;5092306;28;20494;-76
2023/01/06 16:31:43;;;;;;;2.65;1.60;;;13.50;84.10;;;;;;5085663;28;20114;-79
2023/01/06 16:34:25;;;;;;;2.67;1.50;;;13.50;84.30;;;;;;5071560;28;20029;-77
2023/01/06 16:36:58;;;;;;;1.30;1.20;;;13.50;84.30;;;;;;5079679;28;20029;-78
2023/01/06 16:39:25;;;;;;;1.70;1.60;;;13.60;84.20;;;;;;5092192;28;20021;-77
2023/01/06 16:41:57;;;;;;;2.60;1.40;;;13.50;84.20;;;;;;5073072;28;20037;-78
2023/01/06 16:44:28;;;;;;;2.55;1.55;;;13.50;84.30;;;;;;5067118;28;20028;-78
2023/01/06 16:46:54;;;;;;;3.88;1.48;;;13.40;84.60;;;;;;5052331;28;20029;-81
2023/01/06 16:49:21;;;;;;;3.05;1.73;;;13.40;84.70;;;;;;5060381;28;20036;-86
2023/01/06 16:52:10;;;;;;;2.88;1.77;;;13.30;84.80;;;;;;5051613;28;20108;-79
2023/01/06 16:54:35;;;;;;;4.10;2.00;;;13.40;84.80;;;;;;5073938;28;20067;-78
2023/01/06 16:57:01;;;;;;;2.20;1.55;;;13.30;84.80;;;;;;5084014;28;20053;-78
2023/01/06 16:59:30;;;;;;;5.30;2.40;;;13.30;84.70;;;;;;5067500;28;20062;-77
2023/01/06 17:01:56;;;;;;;2.80;2.05;;;13.40;84.90;;;;;;5062054;28;20025;-77
2023/01/06 17:04:22;;;;;;;2.47;1.77;;;13.40;84.90;;;;;;5054090;28;20033;-76
2023/01/06 17:06:48;;;;;;;1.63;1.38;;;13.30;85.00;;;;;;5053962;28;20128;-83
2023/01/06 17:09:41;;;;;;;1.67;1.52;;;13.30;85.00;;;;;;5077883;28;20060;-77
2023/01/06 17:13:33;;;;;;;2.22;1.75;;;13.30;85.10;;;;;;5054182;28;20045;-78
2023/01/06 17:14:59;;;;;;;2.50;1.50;;;13.30;85.10;;;;;;5056819;28;20116;-77
2023/01/06 17:17:25;;;;;;;7.70;2.70;;;13.30;85.20;;;;;;5056735;28;20044;-78
2023/01/06 17:19:53;;;;;;;4.20;1.67;;;13.20;85.20;;;;;;5055781;28;20542;-78
2023/01/06 17:22:29;;;;;;;2.03;1.23;;;13.20;85.20;;;;;;5058676;28;20021;-77
2023/01/06 17:24:58;;;;;;;2.88;1.73;;;13.20;85.30;;;;;;5057583;28;20036;-85
2023/01/06 17:27:28;;;;;;;2.25;1.52;;;13.20;85.40;;;;;;5042824;28;20068;-83
2023/01/06 17:29:59;;;;;;;5.38;2.20;;;13.10;85.60;;;;;;5036790;28;20032;-83
2023/01/06 17:32:38;;;;;;;3.58;1.85;;;13.20;85.70;;;;;;5038048;28;20105;-83
2023/01/06 17:35:25;;;;;;;4.07;2.00;;;13.10;85.90;;;;;;5036421;28;20519;-82
2023/01/06 17:37:54;;;;;;;4.53;2.15;;;13.20;85.90;;;;;;5058350;28;20041;-82
2023/01/06 17:40:30;;;;;;;2.65;1.92;;;13.20;86.00;;;;;;5077895;28;20447;-82
2023/01/06 17:43:21;;;;;;;3.78;2.20;;;13.10;86.10;;;;;;5075988;28;20123;-82
2023/01/06 17:45:47;;;;;;;4.05;2.08;;;13.10;86.00;;;;;;5064440;28;20037;-82
2023/01/06 17:48:12;;;;;;;5.22;2.55;;;13.10;86.00;;;;;;5053634;28;20610;-82
2023/01/06 17:50:53;;;;;;;5.93;2.33;;;13.10;86.10;;;;;;5078428;28;20021;-81
2023/01/06 17:56:13;;;;;;;4.20;2.47;;;13.20;85.90;;;;;;5040258;28;20056;-88
2023/01/06 17:58:42;;;;;;;4.43;2.67;;;13.10;86.20;;;;;;5037736;28;20403;-85
2023/01/06 18:01:25;;;;;;;4.85;2.72;;;13.20;86.10;;;;;;5038284;28;20026;-89
2023/01/06 18:03:53;;;;;;;4.95;2.60;;;13.10;86.20;;;;;;5037054;28;20037;-81
2023/01/06 18:06:29;;;;;;;6.13;3.53;;;13.20;86.10;;;;;;5051554;28;20025;-85
2023/01/06 18:09:09;;;;;;;6.53;2.50;;;13.20;86.20;;;;;;5071759;28;20031;-85
2023/01/06 18:11:40;;;;;;;6.32;3.08;;;13.20;86.00;;;;;;5064837;28;20075;-84
2023/01/06 18:14:20;;;;;;;4.40;3.38;;;13.20;86.10;;;;;;5056327;28;20040;-85
2023/01/06 18:16:46;;;;;;;4.60;2.70;;;13.20;86.00;;;;;;5053206;28;20021;-83
2023/01/06 18:19:24;;;;;;;6.18;3.15;;;13.20;86.10;;;;;;5055792;28;20028;-83
2023/01/06 18:21:51;;;;;;;6.93;3.40;;;13.20;86.20;;;;;;5050534;28;20124;-83
2023/01/06 18:24:28;;;;;;;4.40;2.58;;;13.20;86.30;;;;;;5054160;28;20047;-83
2023/01/06 18:26:56;;;;;;;3.78;2.75;;;13.20;86.10;;;;;;5048868;28;20442;-81
2023/01/06 18:29:34;;;;;;;6.18;2.60;;;13.10;86.20;;;;;;5048846;28;20112;-81
2023/01/06 18:32:23;;;;;;;3.33;2.53;;;13.20;86.40;;;;;;5054031;28;20083;-82
2023/01/06 18:34:52;;;;;;;6.10;2.33;;;13.20;86.40;;;;;;5049302;28;20041;-75
2023/01/06 18:37:28;;;;;;;5.50;2.20;;;13.10;86.40;;;;;;5055780;28;20029;-80
2023/01/06 18:40:15;;;;;;;5.57;2.88;;;13.10;86.50;;;;;;5056579;28;20028;-78
2023/01/06 18:42:45;;;;;;;11.32;3.65;;;13.20;86.50;;;;;;5055254;28;20048;-78
2023/01/06 18:45:10;;;;;;;6.10;2.90;;;13.20;86.40;;;;;;5043087;28;20033;-77
2023/01/06 18:47:39;;;;;;;5.93;3.85;;;13.10;86.60;;;;;;5038247;28;20076;-80